Terminal Aerodrome Forecast
Issued by NWS

Home | Current Version | Previous Version | Text Only | Print | Product List | Glossary Off
Versions: 1 2 3 4 5 6 7 8 9 10 11 12 13 14 15 16

000
FTUS43 KBIS 232329
TAFJMS
TAF
KJMS 232329Z 2400/2424 32020G29KT P6SM BKN060
     FM240200 32014G23KT P6SM FEW050 SCT130
     FM240400 29007KT P6SM BKN090
     FM241300 31013G22KT P6SM BKN090
     FM241600 32019G27KT P6SM SCT035 BKN050=

USA.gov is the U.S. government's official web portal to all federal, state and local government web resources and services.